Time;durP1;ratioP1;P1;durP2;ratioP2;P2;SDS_P1;SDS_P2;PMS_P1;PMS_P2;Temp;Humidity;BMP_temperature;BMP_pressure;BME280_temperature;BME280_humidity;BME280_pressure;Samples;Min_cycle;Max_cycle;Signal;HPM_P1;HPM_P2
2022/03/01 00:00:37;;;;;;;28.48;14.00;;;;;;;4.43;100.00;102849.84;4926231;29;20059;-65
2022/03/01 00:03:02;;;;;;;31.17;14.43;;;;;;;4.43;100.00;102847.16;4926601;29;20134;-64
2022/03/01 00:05:28;;;;;;;31.40;15.10;;;;;;;4.42;100.00;102845.50;4924710;29;20047;-64
2022/03/01 00:07:53;;;;;;;27.85;13.80;;;;;;;4.34;100.00;102850.31;4925389;29;20047;-65
2022/03/01 00:10:18;;;;;;;30.65;14.35;;;;;;;4.38;100.00;102846.13;4926644;29;20047;-64
2022/03/01 00:12:44;;;;;;;29.05;14.27;;;;;;;4.34;100.00;102844.91;4926396;29;20449;-65
2022/03/01 00:15:09;;;;;;;30.40;14.48;;;;;;;4.19;100.00;102842.44;4926454;29;20067;-65
2022/03/01 00:17:35;;;;;;;29.00;14.25;;;;;;;4.32;100.00;102842.41;4926634;29;20506;-65
2022/03/01 00:20:01;;;;;;;28.70;13.57;;;;;;;4.27;100.00;102844.91;4925638;29;20108;-65
2022/03/01 00:22:27;;;;;;;32.35;15.15;;;;;;;4.36;100.00;102845.50;4907292;29;20071;-64
2022/03/01 00:24:52;;;;;;;31.80;14.15;;;;;;;4.35;100.00;102842.00;4907768;29;20151;-64
2022/03/01 00:27:17;;;;;;;34.38;15.13;;;;;;;4.16;100.00;102845.56;4907930;29;20067;-65
2022/03/01 00:29:43;;;;;;;26.88;12.73;;;;;;;4.29;100.00;102842.84;4905827;29;20048;-64
2022/03/01 00:32:09;;;;;;;30.52;14.18;;;;;;;4.15;100.00;102852.00;4905673;29;20090;-64
2022/03/01 00:34:35;;;;;;;28.02;13.88;;;;;;;4.23;100.00;102849.09;4907223;29;20615;-64
2022/03/01 00:37:00;;;;;;;31.73;14.57;;;;;;;3.92;100.00;102847.88;4907351;29;20040;-64
2022/03/01 00:39:26;;;;;;;34.08;15.30;;;;;;;3.82;100.00;102844.81;4907021;29;20525;-64
2022/03/01 00:41:51;;;;;;;30.08;15.05;;;;;;;4.05;100.00;102837.09;4906802;29;20816;-65
2022/03/01 00:44:16;;;;;;;29.05;15.05;;;;;;;4.04;100.00;102832.72;4906588;29;20051;-65
2022/03/01 00:46:42;;;;;;;33.00;15.05;;;;;;;4.01;100.00;102835.81;4906361;29;20797;-65
2022/03/01 00:49:07;;;;;;;33.47;14.80;;;;;;;3.97;100.00;102837.31;4906895;29;20110;-64
2022/03/01 00:51:33;;;;;;;33.53;13.38;;;;;;;3.99;100.00;102840.63;4907141;29;20058;-65
2022/03/01 00:53:58;;;;;;;29.50;13.18;;;;;;;3.98;100.00;102838.94;4906907;29;20079;-64
2022/03/01 00:56:24;;;;;;;31.77;14.10;;;;;;;4.11;100.00;102845.38;4907268;29;20048;-64
2022/03/01 00:58:49;;;;;;;30.90;15.73;;;;;;;4.01;100.00;102846.63;4908618;29;20084;-65
2022/03/01 01:01:15;;;;;;;28.98;15.05;;;;;;;3.90;100.00;102850.00;4910304;29;20040;-65
2022/03/01 01:03:40;;;;;;;30.42;14.90;;;;;;;4.11;100.00;102840.00;4909138;29;20290;-64
2022/03/01 01:06:06;;;;;;;31.42;13.38;;;;;;;4.14;100.00;102844.97;4909378;29;20044;-65
2022/03/01 01:08:31;;;;;;;36.70;15.60;;;;;;;4.25;100.00;102847.03;4908243;29;20048;-65
2022/03/01 01:10:57;;;;;;;30.05;15.23;;;;;;;4.26;100.00;102838.69;4906855;29;20040;-65
2022/03/01 01:13:22;;;;;;;31.52;14.77;;;;;;;4.27;100.00;102836.81;4906527;29;20043;-64
2022/03/01 01:15:48;;;;;;;34.90;15.80;;;;;;;4.21;100.00;102834.97;4905828;29;20044;-64
2022/03/01 01:18:14;;;;;;;30.83;14.90;;;;;;;4.20;100.00;102833.31;4905899;29;20083;-64
2022/03/01 01:20:40;;;;;;;31.13;15.07;;;;;;;4.25;100.00;102830.81;4914858;29;20039;-64
2022/03/01 01:23:05;;;;;;;33.08;15.23;;;;;;;4.24;100.00;102829.13;4923300;29;20087;-64
2022/03/01 01:25:31;;;;;;;35.13;15.38;;;;;;;4.30;100.00;102828.28;4924999;29;20043;-65
2022/03/01 01:27:58;;;;;;;36.08;14.93;;;;;;;4.24;100.00;102815.63;4924558;29;20043;-64
2022/03/01 01:30:26;;;;;;;29.83;15.50;;;;;;;4.25;100.00;102817.31;4924681;29;20039;-65
2022/03/01 01:32:53;;;;;;;28.10;13.50;;;;;;;3.89;100.00;102820.50;4924446;29;20147;-65
2022/03/01 01:35:21;;;;;;;32.08;14.15;;;;;;;3.73;100.00;102811.81;4923771;29;20102;-65
2022/03/01 01:37:47;;;;;;;32.17;15.40;;;;;;;3.80;100.00;102811.78;4923023;29;20043;-65
2022/03/01 01:40:16;;;;;;;34.35;15.77;;;;;;;3.57;100.00;102804.94;4924360;29;20044;-65
2022/03/01 01:42:41;;;;;;;31.23;14.90;;;;;;;3.76;100.00;102810.56;4925024;29;20122;-65
2022/03/01 01:45:08;;;;;;;30.83;15.15;;;;;;;3.81;100.00;102813.44;4925020;29;20047;-65
2022/03/01 01:47:33;;;;;;;29.90;14.98;;;;;;;3.86;100.00;102810.94;4924888;29;20047;-65
2022/03/01 01:49:59;;;;;;;29.27;14.38;;;;;;;3.84;100.00;102807.66;4907652;29;20077;-64
2022/03/01 01:52:25;;;;;;;33.85;15.25;;;;;;;4.01;100.00;102819.63;4924431;29;20091;-64
2022/03/01 01:54:52;;;;;;;30.50;14.40;;;;;;;3.96;100.00;102810.53;4924086;29;20348;-65
2022/03/01 01:57:21;;;;;;;30.60;14.27;;;;;;;3.98;100.00;102817.34;4922681;29;20086;-64
2022/03/01 01:59:48;;;;;;;33.72;15.00;;;;;;;3.86;100.00;102810.94;4923447;29;20040;-64
2022/03/01 02:02:16;;;;;;;32.55;15.25;;;;;;;4.03;100.00;102814.84;4923350;29;20404;-64
2022/03/01 02:04:42;;;;;;;29.90;15.05;;;;;;;4.03;100.00;102816.72;4922267;29;20134;-64
2022/03/01 02:07:08;;;;;;;28.67;13.15;;;;;;;4.05;100.00;102812.78;4920796;29;20765;-65
2022/03/01 02:09:34;;;;;;;34.60;16.35;;;;;;;4.08;100.00;102816.94;4921850;29;20051;-65
2022/03/01 02:12:02;;;;;;;32.15;15.23;;;;;;;4.06;100.00;102821.72;4923594;29;20044;-66
2022/03/01 02:14:29;;;;;;;31.23;15.45;;;;;;;3.99;100.00;102816.34;4922859;29;20425;-64
2022/03/01 02:16:54;;;;;;;26.70;14.38;;;;;;;4.13;100.00;102821.69;4923406;29;20736;-64
2022/03/01 02:19:20;;;;;;;29.92;14.00;;;;;;;4.06;100.00;102817.13;4922990;29;20042;-65
2022/03/01 02:21:50;;;;;;;31.95;15.40;;;;;;;3.81;100.00;102813.44;4923366;29;20139;-65
2022/03/01 02:24:17;;;;;;;32.35;15.52;;;;;;;3.86;100.00;102821.75;4923735;29;20126;-64
2022/03/01 02:26:43;;;;;;;34.25;14.75;;;;;;;3.88;100.00;102825.06;4922386;29;20449;-65
2022/03/01 02:29:08;;;;;;;30.20;15.80;;;;;;;3.65;100.00;102824.69;4922301;29;20083;-65
2022/03/01 02:31:34;;;;;;;43.15;16.15;;;;;;;3.72;100.00;102826.31;4923727;29;20046;-65
2022/03/01 02:34:00;;;;;;;29.88;15.60;;;;;;;3.82;100.00;102820.50;4922414;29;20569;-65
2022/03/01 02:36:25;;;;;;;30.55;14.65;;;;;;;3.77;100.00;102818.44;4906826;29;20143;-64
2022/03/01 02:38:51;;;;;;;32.97;16.27;;;;;;;3.93;100.00;102819.88;4925156;29;20040;-64
2022/03/01 02:41:16;;;;;;;32.42;15.55;;;;;;;3.98;100.00;102819.22;4907245;29;20047;-65
2022/03/01 02:43:42;;;;;;;30.60;15.20;;;;;;;3.78;100.00;102824.66;4922553;29;20142;-65
2022/03/01 02:46:07;;;;;;;35.50;16.38;;;;;;;3.96;100.00;102821.34;4924184;29;20063;-64
2022/03/01 02:48:32;;;;;;;26.48;15.05;;;;;;;3.89;100.00;102818.63;4924407;29;20971;-64
2022/03/01 02:50:59;;;;;;;34.13;16.42;;;;;;;3.78;100.00;102816.56;4923821;29;20109;-65
2022/03/01 02:53:24;;;;;;;35.30;16.35;;;;;;;3.75;100.00;102820.53;4923450;29;20040;-64
2022/03/01 02:55:49;;;;;;;33.58;15.38;;;;;;;3.77;100.00;102818.44;4924245;29;20047;-64
2022/03/01 02:58:16;;;;;;;28.88;14.93;;;;;;;3.73;100.00;102814.50;4924128;29;20139;-64
2022/03/01 03:00:44;;;;;;;36.35;15.13;;;;;;;3.36;100.00;102811.41;4923442;29;20055;-70
2022/03/01 03:03:11;;;;;;;37.40;16.10;;;;;;;3.23;100.00;102810.56;4922361;29;20055;-64
2022/03/01 03:05:36;;;;;;;33.78;15.10;;;;;;;3.10;100.00;102814.06;4923715;29;20434;-64
2022/03/01 03:08:02;;;;;;;37.72;16.13;;;;;;;3.38;100.00;102809.34;4922829;29;20054;-65
2022/03/01 03:10:27;;;;;;;36.50;15.63;;;;;;;3.53;100.00;102806.41;4926406;29;20043;-65
2022/03/01 03:12:53;;;;;;;34.78;16.02;;;;;;;3.53;100.00;102801.03;4927549;29;20047;-65
2022/03/01 03:15:18;;;;;;;29.30;15.73;;;;;;;3.63;100.00;102801.41;4927466;29;20051;-64
2022/03/01 03:17:44;;;;;;;38.60;16.77;;;;;;;3.66;100.00;102797.47;4927177;29;20051;-65
2022/03/01 03:20:10;;;;;;;36.60;17.02;;;;;;;3.70;100.00;102800.63;4926807;29;20074;-64
2022/03/01 03:22:35;;;;;;;36.55;16.02;;;;;;;3.78;100.00;102803.06;4927104;29;20031;-64
2022/03/01 03:25:00;;;;;;;33.88;16.13;;;;;;;3.63;100.00;102796.03;4927519;29;20493;-65
2022/03/01 03:27:26;;;;;;;33.22;15.48;;;;;;;3.40;100.00;102795.63;4927339;29;20135;-65
2022/03/01 03:29:52;;;;;;;34.08;15.82;;;;;;;3.50;100.00;102801.44;4927265;29;20139;-68
2022/03/01 03:32:17;;;;;;;31.23;14.95;;;;;;;2.68;100.00;102802.59;4924872;29;20107;-64
2022/03/01 03:34:43;;;;;;;31.08;15.75;;;;;;;2.55;100.00;102797.97;4926710;29;20507;-64
2022/03/01 03:37:08;;;;;;;30.33;14.40;;;;;;;2.85;100.00;102794.94;4926615;29;20206;-64
2022/03/01 03:39:33;;;;;;;32.55;16.30;;;;;;;2.85;100.00;102794.94;4926415;29;20040;-66
2022/03/01 03:41:59;;;;;;;36.63;15.55;;;;;;;3.04;100.00;102798.72;4924228;29;20781;-64
2022/03/01 03:44:24;;;;;;;36.90;16.25;;;;;;;2.89;100.00;102790.81;4926365;29;20134;-64
2022/03/01 03:46:50;;;;;;;34.58;16.30;;;;;;;2.74;100.00;102790.16;4926237;29;20051;-64
2022/03/01 03:49:15;;;;;;;35.85;17.75;;;;;;;2.83;100.00;102786.25;4926105;29;20042;-64
2022/03/01 03:51:40;;;;;;;35.50;17.20;;;;;;;3.20;100.00;102789.41;4926503;29;20800;-64
2022/03/01 03:54:06;;;;;;;36.67;17.27;;;;;;;3.27;100.00;102795.63;4926681;29;20163;-64
2022/03/01 03:56:31;;;;;;;34.30;16.67;;;;;;;3.37;100.00;102796.03;4926355;29;20135;-64
2022/03/01 03:58:58;;;;;;;33.25;16.52;;;;;;;3.41;100.00;102797.31;4926133;29;20093;-65
2022/03/01 04:01:23;;;;;;;34.65;17.08;;;;;;;3.53;100.00;102792.94;4926238;29;20206;-65
2022/03/01 04:03:50;;;;;;;39.35;17.83;;;;;;;3.46;100.00;102789.44;4926456;29;20540;-65
2022/03/01 04:06:15;;;;;;;37.15;16.67;;;;;;;3.51;100.00;102795.00;4908819;29;20039;-65
2022/03/01 04:08:41;;;;;;;38.00;17.20;;;;;;;3.30;100.00;102795.22;4924623;29;20048;-64
2022/03/01 04:11:06;;;;;;;36.28;17.80;;;;;;;3.13;100.00;102789.41;4924503;29;20039;-64
2022/03/01 04:13:32;;;;;;;40.33;17.42;;;;;;;3.15;100.00;102790.03;4924720;29;20441;-65
2022/03/01 04:15:57;;;;;;;35.75;16.58;;;;;;;3.13;100.00;102792.09;4925903;29;20039;-65
2022/03/01 04:18:22;;;;;;;36.00;16.92;;;;;;;3.01;100.00;102791.06;4924127;29;20609;-64
2022/03/01 04:20:48;;;;;;;35.85;16.23;;;;;;;3.00;100.00;102792.91;4924586;29;20047;-64
2022/03/01 04:23:13;;;;;;;35.63;16.83;;;;;;;3.04;100.00;102785.25;4925843;29;20043;-65
2022/03/01 04:25:39;;;;;;;31.95;16.42;;;;;;;2.94;100.00;102786.47;4923827;29;20067;-65
2022/03/01 04:28:04;;;;;;;37.42;16.88;;;;;;;3.03;100.00;102789.81;4925315;29;20115;-67
2022/03/01 04:30:30;;;;;;;38.95;16.15;;;;;;;3.05;100.00;102793.09;4925146;29;20749;-64
2022/03/01 04:32:55;;;;;;;32.97;17.08;;;;;;;2.90;100.00;102790.59;4924872;29;20058;-65
2022/03/01 04:35:21;;;;;;;32.63;16.60;;;;;;;3.01;100.00;102794.56;4925399;29;20039;-65
2022/03/01 04:37:47;;;;;;;39.35;17.85;;;;;;;2.98;100.00;102791.47;4925283;29;20419;-65
2022/03/01 04:40:14;;;;;;;37.38;17.67;;;;;;;3.18;100.00;102797.69;4924968;29;20050;-65
2022/03/01 04:42:40;;;;;;;36.05;16.38;;;;;;;3.20;100.00;102795.63;4924912;29;20043;-65
2022/03/01 04:45:07;;;;;;;36.42;16.52;;;;;;;3.13;100.00;102790.22;4924885;29;20036;-64
2022/03/01 04:47:33;;;;;;;35.50;16.75;;;;;;;3.34;100.00;102786.50;4925013;29;20067;-66
2022/03/01 04:49:58;;;;;;;32.35;16.15;;;;;;;3.50;100.00;102787.97;4907786;29;20187;-66
2022/03/01 04:52:24;;;;;;;36.20;17.77;;;;;;;3.51;100.00;102792.31;4925280;29;20134;-65
2022/03/01 04:54:50;;;;;;;42.92;18.38;;;;;;;3.74;100.00;102796.44;4923013;29;20051;-64
2022/03/01 04:57:16;;;;;;;36.10;16.83;;;;;;;3.77;100.00;102796.84;4924500;29;20038;-66
2022/03/01 04:59:41;;;;;;;36.80;17.15;;;;;;;3.71;100.00;102797.69;4924385;29;20480;-65
2022/03/01 05:02:07;;;;;;;41.63;17.13;;;;;;;3.59;100.00;102797.50;4924690;29;20079;-65
2022/03/01 05:04:32;;;;;;;39.33;18.33;;;;;;;3.55;100.00;102796.25;4925122;29;20046;-65
2022/03/01 05:06:57;;;;;;;37.65;16.48;;;;;;;3.72;100.00;102801.22;4925334;29;20050;-66
2022/03/01 05:09:24;;;;;;;33.58;17.10;;;;;;;3.69;100.00;102793.53;4925711;29;20099;-65
2022/03/01 05:11:50;;;;;;;41.22;17.83;;;;;;;3.61;100.00;102802.69;4923869;29;20054;-64
2022/03/01 05:14:16;;;;;;;39.92;17.33;;;;;;;3.48;100.00;102790.03;4924595;29;20052;-65
2022/03/01 05:16:42;;;;;;;38.95;17.42;;;;;;;3.66;100.00;102794.78;4907649;29;20055;-67
2022/03/01 05:19:09;;;;;;;44.20;18.08;;;;;;;3.71;100.00;102792.28;4924413;29;20193;-65
2022/03/01 05:21:35;;;;;;;35.35;17.17;;;;;;;3.71;100.00;102797.69;4924398;29;20036;-64
2022/03/01 05:24:00;;;;;;;40.00;17.23;;;;;;;3.52;100.00;102796.69;4924329;29;20172;-64
2022/03/01 05:26:26;;;;;;;35.95;16.92;;;;;;;3.43;100.00;102795.22;4923886;29;20047;-65
2022/03/01 05:28:51;;;;;;;37.67;17.90;;;;;;;3.38;100.00;102787.75;4923732;29;20072;-65
2022/03/01 05:31:18;;;;;;;36.33;16.98;;;;;;;3.47;100.00;102785.69;4923765;29;20043;-65
2022/03/01 05:33:43;;;;;;;34.83;16.98;;;;;;;3.45;100.00;102786.91;4923094;29;20135;-64
2022/03/01 05:36:09;;;;;;;37.10;18.45;;;;;;;3.45;100.00;102776.97;4923915;29;20535;-64
2022/03/01 05:38:35;;;;;;;37.25;17.33;;;;;;;3.32;100.00;102782.38;4923378;29;20157;-64
2022/03/01 05:41:00;;;;;;;36.33;18.50;;;;;;;3.53;100.00;102776.75;4922594;29;20051;-64
2022/03/01 05:43:26;;;;;;;38.38;17.45;;;;;;;3.48;100.00;102776.53;4922938;29;20055;-64
2022/03/01 05:45:51;;;;;;;40.35;18.13;;;;;;;3.50;100.00;102776.34;4904929;29;20055;-65
2022/03/01 05:48:16;;;;;;;33.92;17.52;;;;;;;3.49;100.00;102767.44;4921595;29;20063;-64
2022/03/01 05:50:42;;;;;;;35.60;16.08;;;;;;;3.39;100.00;102761.63;4929434;29;20039;-64
2022/03/01 05:53:07;;;;;;;38.20;16.20;;;;;;;3.46;100.00;102764.28;4922757;29;20218;-64
2022/03/01 05:55:33;;;;;;;31.40;15.68;;;;;;;3.11;100.00;102765.34;4923891;29;20678;-64
2022/03/01 05:57:58;;;;;;;37.38;17.90;;;;;;;3.38;100.00;102768.06;4923219;29;20077;-65
2022/03/01 06:00:24;;;;;;;34.55;16.17;;;;;;;3.38;100.00;102766.19;4923971;29;20047;-64
2022/03/01 06:02:57;;;;;;;35.60;16.38;;;;;;;3.37;100.00;102769.06;4924073;29;20071;-65
2022/03/01 06:05:24;;;;;;;35.85;16.75;;;;;;;3.26;100.00;102767.00;4923929;29;20118;-65
2022/03/01 06:07:49;;;;;;;31.88;16.55;;;;;;;3.27;100.00;102763.28;4924097;29;20044;-64
2022/03/01 06:10:14;;;;;;;33.50;16.30;;;;;;;3.58;100.00;102770.75;4923937;29;20051;-65
2022/03/01 06:12:40;;;;;;;36.15;16.75;;;;;;;3.27;100.00;102755.19;4922531;29;20171;-64
2022/03/01 06:15:06;;;;;;;41.72;17.65;;;;;;;3.37;100.00;102758.28;4923770;29;20060;-64
2022/03/01 06:17:31;;;;;;;37.03;15.75;;;;;;;3.40;100.00;102757.88;4923845;29;20050;-68
2022/03/01 06:19:57;;;;;;;33.38;15.65;;;;;;;3.08;100.00;102756.84;4924259;29;20050;-64
2022/03/01 06:22:23;;;;;;;35.53;16.90;;;;;;;3.34;100.00;102753.31;4923755;29;20044;-65
2022/03/01 06:24:49;;;;;;;29.02;15.07;;;;;;;3.44;100.00;102759.13;4923326;29;20051;-64
2022/03/01 06:27:14;;;;;;;33.05;15.40;;;;;;;3.48;100.00;102760.34;4923980;29;20062;-65
2022/03/01 06:29:41;;;;;;;30.08;15.48;;;;;;;3.39;100.00;102756.22;4923677;29;20077;-67
2022/03/01 06:32:07;;;;;;;30.15;14.63;;;;;;;3.56;100.00;102768.25;4923405;29;20091;-64
2022/03/01 06:34:33;;;;;;;36.55;16.20;;;;;;;3.47;100.00;102764.09;4923291;29;20123;-64
2022/03/01 06:36:58;;;;;;;30.55;16.52;;;;;;;3.59;100.00;102775.09;4923482;29;20114;-64
2022/03/01 06:39:24;;;;;;;30.63;15.73;;;;;;;3.73;100.00;102778.59;4922800;29;20043;-64
2022/03/01 06:41:50;;;;;;;34.35;15.38;;;;;;;3.87;100.00;102774.84;4922145;29;20031;-65
2022/03/01 06:44:16;;;;;;;27.38;14.45;;;;;;;3.77;100.00;102777.94;4922105;29;20040;-64
2022/03/01 06:46:42;;;;;;;36.40;16.20;;;;;;;4.00;100.00;102784.75;4926164;29;20058;-64
2022/03/01 06:49:07;;;;;;;27.15;14.75;;;;;;;3.83;100.00;102789.78;4928057;29;20114;-65
2022/03/01 06:51:33;;;;;;;33.67;16.08;;;;;;;3.95;100.00;102782.69;4927698;29;20905;-64
2022/03/01 06:53:58;;;;;;;36.15;16.08;;;;;;;4.20;100.00;102785.53;4926545;29;20519;-64
2022/03/01 06:56:23;;;;;;;36.80;15.52;;;;;;;4.39;100.00;102783.78;4928192;29;20032;-64
2022/03/01 06:58:49;;;;;;;31.67;14.95;;;;;;;4.35;100.00;102781.75;4927905;29;20140;-64
2022/03/01 07:01:14;;;;;;;31.10;15.70;;;;;;;4.76;100.00;102784.03;4927307;29;20158;-64
2022/03/01 07:03:42;;;;;;;30.98;15.40;;;;;;;4.36;100.00;102781.50;4927790;29;20098;-64
2022/03/01 07:06:07;;;;;;;28.02;14.38;;;;;;;4.68;100.00;102795.06;4927643;29;20052;-64
2022/03/01 07:08:33;;;;;;;28.17;15.13;;;;;;;4.78;100.00;102798.16;4925878;29;20098;-65
2022/03/01 07:10:58;;;;;;;30.65;13.93;;;;;;;4.58;100.00;102792.03;4909938;29;20386;-64
2022/03/01 07:13:24;;;;;;;26.50;14.20;;;;;;;4.79;100.00;102798.97;4925653;29;20501;-64
2022/03/01 07:15:49;;;;;;;27.23;14.10;;;;;;;4.82;100.00;102810.19;4926990;29;20054;-64
2022/03/01 07:18:15;;;;;;;28.02;14.05;;;;;;;5.24;100.00;102807.84;4927394;29;20453;-64
2022/03/01 07:20:40;;;;;;;27.83;13.80;;;;;;;5.29;100.00;102799.88;4927051;29;20040;-64
2022/03/01 07:23:05;;;;;;;25.08;14.00;;;;;;;5.07;100.00;102807.53;4925664;29;20044;-64
2022/03/01 07:25:31;;;;;;;30.42;14.52;;;;;;;5.30;100.00;102812.38;4927322;29;20881;-64
2022/03/01 07:27:57;;;;;;;28.45;13.38;;;;;;;5.44;100.00;102813.94;4926786;29;20630;-64
2022/03/01 07:30:24;;;;;;;31.63;14.18;;;;;;;5.53;100.00;102808.25;4926370;29;20528;-64
2022/03/01 07:32:52;;;;;;;26.27;13.25;;;;;;;5.70;100.00;102817.44;4925086;29;20063;-65
2022/03/01 07:35:19;;;;;;;25.75;13.25;;;;;;;5.96;100.00;102815.56;4926432;29;20047;-64
2022/03/01 07:37:44;;;;;;;30.73;15.00;;;;;;;5.75;100.00;102814.88;4926120;29;20031;-64
2022/03/01 07:40:12;;;;;;;28.17;13.80;;;;;;;5.99;100.00;102820.53;4924843;29;20465;-64
2022/03/01 07:42:38;;;;;;;27.08;14.20;;;;;;;5.91;100.00;102818.91;4926412;29;20050;-64
2022/03/01 07:45:05;;;;;;;27.00;13.27;;;;;;;6.12;100.00;102821.22;4925716;29;20039;-64
2022/03/01 07:47:30;;;;;;;27.60;14.38;;;;;;;6.21;100.00;102832.59;4924794;29;20152;-63
2022/03/01 07:49:56;;;;;;;24.95;13.80;;;;;;;6.25;100.00;102825.66;4924922;29;20039;-64
2022/03/01 07:52:22;;;;;;;28.13;13.60;;;;;;;6.43;100.00;102821.28;4925095;29;20044;-64
2022/03/01 07:54:48;;;;;;;29.83;14.60;;;;;;;6.51;100.00;102835.34;4925242;29;20051;-64
2022/03/01 07:57:14;;;;;;;29.13;13.48;;;;;;;6.69;100.00;102836.38;4925891;29;20040;-65
2022/03/01 07:59:40;;;;;;;25.00;12.88;;;;;;;6.90;100.00;102832.38;4925659;29;20099;-64
2022/03/01 08:02:05;;;;;;;30.02;14.10;;;;;;;7.07;100.00;102827.09;4925627;29;20043;-65
2022/03/01 08:04:30;;;;;;;29.40;13.73;;;;;;;7.15;100.00;102840.34;4926092;29;20048;-65
2022/03/01 08:06:56;;;;;;;25.83;12.88;;;;;;;7.31;100.00;102833.44;4926007;29;20055;-64
2022/03/01 08:09:21;;;;;;;32.83;14.23;;;;;;;7.48;100.00;102839.84;4925852;29;20043;-64
2022/03/01 08:11:47;;;;;;;25.83;12.80;;;;;;;7.10;100.00;102837.47;4925639;29;20452;-67
2022/03/01 08:14:12;;;;;;;25.15;13.63;;;;;;;7.40;100.00;102842.88;4925167;29;20039;-64
2022/03/01 08:16:37;;;;;;;23.98;12.98;;;;;;;6.66;100.00;102842.25;4925089;29;20042;-64
2022/03/01 08:19:03;;;;;;;26.80;12.98;;;;;;;7.07;100.00;102836.09;4924777;29;20420;-64
2022/03/01 08:21:28;;;;;;;25.90;13.63;;;;;;;6.66;100.00;102837.69;4924940;29;20051;-65
2022/03/01 08:23:54;;;;;;;23.00;12.77;;;;;;;6.83;100.00;102846.00;4925529;29;20059;-64
2022/03/01 08:26:19;;;;;;;24.90;12.43;;;;;;;6.73;100.00;102849.25;4925953;29;20071;-65
2022/03/01 08:28:46;;;;;;;25.08;14.00;;;;;;;6.73;100.00;102826.75;4925675;29;20035;-64
2022/03/01 08:31:11;;;;;;;23.90;12.38;;;;;;;6.70;100.00;102822.59;4925531;29;20541;-64
2022/03/01 08:33:37;;;;;;;27.88;14.35;;;;;;;6.92;100.00;102830.22;4925075;29;20159;-64
2022/03/01 08:36:03;;;;;;;26.23;13.60;;;;;;;6.97;100.00;102843.94;4923563;29;20885;-64
2022/03/01 08:38:28;;;;;;;27.65;13.20;;;;;;;6.79;100.00;102832.06;4925455;29;20069;-65
2022/03/01 08:40:54;;;;;;;25.50;13.63;;;;;;;7.09;100.00;102846.69;4923622;29;20035;-64
2022/03/01 08:43:21;;;;;;;22.13;12.88;;;;;;;6.92;100.00;102858.22;4927359;29;20444;-64
2022/03/01 08:45:47;;;;;;;23.90;13.18;;;;;;;7.22;100.00;102841.91;4925819;29;20878;-64
2022/03/01 08:48:13;;;;;;;27.10;13.07;;;;;;;7.10;100.00;102846.47;4927786;29;20046;-65
2022/03/01 08:50:39;;;;;;;23.83;12.85;;;;;;;7.41;100.00;102830.97;4927074;29;20047;-65
2022/03/01 08:53:05;;;;;;;22.13;13.48;;;;;;;7.66;100.00;102842.44;4927351;29;20039;-64
2022/03/01 08:55:31;;;;;;;24.85;13.55;;;;;;;8.11;100.00;102836.41;4927181;29;20689;-64
2022/03/01 08:57:57;;;;;;;25.88;13.48;;;;;;;8.10;100.00;102844.81;4924916;29;20782;-64
2022/03/01 09:00:25;;;;;;;31.75;14.60;;;;;;;8.11;100.00;102850.00;4926303;29;20119;-64
2022/03/01 09:02:51;;;;;;;24.13;13.63;;;;;;;8.74;100.00;102851.06;4925956;29;20043;-65
2022/03/01 09:05:16;;;;;;;26.10;12.90;;;;;;;8.25;100.00;102847.84;4925473;29;20036;-64
2022/03/01 09:07:42;;;;;;;30.98;14.73;;;;;;;8.24;100.00;102851.66;4924808;29;20622;-66
2022/03/01 09:10:08;;;;;;;26.63;12.82;;;;;;;8.74;100.00;102853.78;4924908;29;20063;-64
2022/03/01 09:12:34;;;;;;;25.80;14.15;;;;;;;8.29;100.00;102848.19;4907526;29;20095;-64
2022/03/01 09:15:00;;;;;;;21.58;12.43;;;;;;;8.64;100.00;102844.59;4924756;29;20039;-64
2022/03/01 09:17:25;;;;;;;24.08;12.43;;;;;;;8.83;100.00;102852.34;4924793;29;20113;-64
2022/03/01 09:19:51;;;;;;;23.92;12.80;;;;;;;8.74;100.00;102852.97;4924654;29;20058;-65
2022/03/01 09:22:16;;;;;;;23.02;13.10;;;;;;;9.37;100.00;102857.41;4924138;29;20051;-65
2022/03/01 09:24:44;;;;;;;25.40;12.90;;;;;;;8.81;100.00;102853.66;4924550;29;20040;-66
2022/03/01 09:27:09;;;;;;;22.38;13.20;;;;;;;8.44;100.00;102854.00;4924216;29;20126;-64
2022/03/01 09:29:35;;;;;;;25.48;13.23;;;;;;;7.89;100.00;102857.09;4924259;29;20044;-64
2022/03/01 09:32:00;;;;;;;26.85;12.70;;;;;;;7.53;100.00;102858.13;4923879;29;20700;-64
2022/03/01 09:34:26;;;;;;;27.60;13.23;;;;;;;7.59;100.00;102858.03;4923732;29;20054;-64
2022/03/01 09:36:52;;;;;;;29.20;13.88;;;;;;;8.21;100.00;102857.56;4924302;29;20074;-64
2022/03/01 09:39:17;;;;;;;21.75;12.10;;;;;;;8.49;100.00;102856.81;4924433;29;20143;-64
2022/03/01 09:41:43;;;;;;;22.30;12.85;;;;;;;9.17;100.00;102863.31;4924299;29;20044;-64
2022/03/01 09:44:09;;;;;;;25.85;12.77;;;;;;;9.74;100.00;102868.66;4924184;29;20584;-64
2022/03/01 09:46:34;;;;;;;22.13;12.57;;;;;;;9.29;100.00;102871.44;4923985;29;20433;-64
2022/03/01 09:49:01;;;;;;;28.92;13.10;;;;;;;9.58;100.00;102860.47;4923951;29;20045;-65
2022/03/01 09:51:27;;;;;;;25.27;13.07;;;;;;;8.99;100.00;102866.25;4923940;29;20090;-64
2022/03/01 09:53:53;;;;;;;23.20;12.63;;;;;;;10.05;100.00;102868.28;4923903;29;20142;-67
2022/03/01 09:56:19;;;;;;;26.23;13.45;;;;;;;9.70;100.00;102875.66;4923743;29;20070;-65
2022/03/01 09:58:49;;;;;;;25.95;13.73;;;;;;;9.48;100.00;102872.84;4923496;29;20043;-65
2022/03/01 10:01:16;;;;;;;23.67;13.88;;;;;;;9.69;100.00;102860.41;4924244;29;20067;-64
2022/03/01 10:03:48;;;;;;;21.55;13.63;;;;;;;10.36;100.00;102855.94;4923732;29;20093;-65
2022/03/01 10:06:15;;;;;;;23.88;13.65;;;;;;;10.13;100.00;102854.22;4923873;29;20055;-65
2022/03/01 10:08:41;;;;;;;24.17;14.13;;;;;;;9.97;100.00;102859.44;4922412;29;20130;-65
2022/03/01 10:11:08;;;;;;;22.33;11.93;;;;;;;10.14;100.00;102856.69;4923787;29;20131;-64
2022/03/01 10:13:36;;;;;;;23.67;13.30;;;;;;;10.46;100.00;102856.06;4923633;29;20039;-65
2022/03/01 10:16:09;;;;;;;26.50;13.80;;;;;;;10.27;100.00;102855.56;4924310;29;20040;-65
2022/03/01 10:18:41;;;;;;;24.35;12.73;;;;;;;10.50;100.00;102864.56;4924004;29;20151;-64
2022/03/01 10:21:14;;;;;;;26.67;13.77;;;;;;;10.65;100.00;102864.75;4926423;29;20370;-65
2022/03/01 10:23:46;;;;;;;22.17;12.45;;;;;;;9.95;100.00;102869.78;4927691;29;20039;-65
2022/03/01 10:26:17;;;;;;;28.33;13.77;;;;;;;10.04;100.00;102866.66;4927005;29;20074;-64
2022/03/01 10:28:44;;;;;;;21.75;12.52;;;;;;;9.91;99.76;102874.06;4926967;29;20138;-65
2022/03/01 10:31:15;;;;;;;26.48;13.77;;;;;;;9.97;100.00;102872.25;4927118;29;20559;-64
2022/03/01 10:33:53;;;;;;;25.38;12.40;;;;;;;10.23;100.00;102873.44;4927218;29;20051;-64
2022/03/01 10:36:28;;;;;;;20.80;12.57;;;;;;;10.66;100.00;102869.13;4928058;29;20126;-65
2022/03/01 10:39:04;;;;;;;25.20;12.80;;;;;;;10.62;99.43;102870.72;4926087;29;20154;-64
2022/03/01 10:41:32;;;;;;;25.35;12.70;;;;;;;9.92;96.95;102881.19;4923916;29;20095;-65
2022/03/01 10:43:59;;;;;;;25.90;13.20;;;;;;;10.49;98.78;102868.38;4924551;29;20043;-65
2022/03/01 10:46:28;;;;;;;29.13;13.75;;;;;;;10.31;100.00;102862.13;4926035;29;20031;-65
2022/03/01 10:49:00;;;;;;;24.52;12.35;;;;;;;10.54;100.00;102865.72;4926454;29;20052;-65
2022/03/01 10:51:26;;;;;;;24.83;13.13;;;;;;;10.09;100.00;102869.41;4926709;29;20094;-65
2022/03/01 10:53:51;;;;;;;22.52;13.10;;;;;;;10.64;100.00;102871.28;4925147;29;20519;-65
2022/03/01 10:56:17;;;;;;;22.20;13.35;;;;;;;10.95;100.00;102866.19;4926750;29;20405;-64
2022/03/01 10:58:44;;;;;;;23.02;12.90;;;;;;;11.24;99.34;102861.28;4926529;29;20887;-65
2022/03/01 11:01:11;;;;;;;22.10;13.20;;;;;;;11.16;96.97;102868.03;4925064;29;20039;-64
2022/03/01 11:03:38;;;;;;;27.42;13.68;;;;;;;11.40;95.80;102870.44;4926316;29;20082;-65